createdAt,value
2019-03-21T00:01:37.898Z,9.70
2019-03-21T00:04:09.103Z,9.70
2019-03-21T00:06:37.694Z,9.70
2019-03-21T00:09:08.727Z,9.70
2019-03-21T00:12:02.698Z,9.70
2019-03-21T00:14:42.918Z,9.60
2019-03-21T00:17:23.913Z,9.60
2019-03-21T00:19:52.482Z,9.60
2019-03-21T00:22:21.071Z,9.60
2019-03-21T00:24:49.652Z,9.60
2019-03-21T00:27:18.237Z,9.60
2019-03-21T00:29:46.802Z,9.60
2019-03-21T00:32:15.316Z,9.60
2019-03-21T00:34:43.887Z,9.60
2019-03-21T00:37:12.468Z,9.60
2019-03-21T00:39:40.960Z,9.60
2019-03-21T00:42:09.614Z,9.60
2019-03-21T00:44:38.116Z,9.60
2019-03-21T00:47:06.700Z,9.60
2019-03-21T00:49:35.270Z,9.60
2019-03-21T00:52:03.922Z,9.60
2019-03-21T00:54:32.481Z,9.60
2019-03-21T00:57:01.058Z,9.60
2019-03-21T00:59:29.624Z,9.60
2019-03-21T01:01:58.219Z,9.60
2019-03-21T01:04:27.725Z,9.60
2019-03-21T01:06:56.381Z,9.60
2019-03-21T01:09:24.883Z,9.60
2019-03-21T01:11:53.460Z,9.60
2019-03-21T01:14:29.810Z,9.60
2019-03-21T01:16:52.257Z,9.60
2019-03-21T01:19:20.754Z,9.60
2019-03-21T01:21:49.339Z,9.60
2019-03-21T01:24:17.909Z,9.70
2019-03-21T01:26:46.497Z,9.70
2019-03-21T01:29:15.127Z,9.70
2019-03-21T01:31:43.710Z,9.70
2019-03-21T01:34:12.208Z,9.60
2019-03-21T01:36:40.786Z,9.60
2019-03-21T01:39:09.356Z,9.60
2019-03-21T01:41:37.937Z,9.60
2019-03-21T01:44:06.573Z,9.60
2019-03-21T01:46:35.157Z,9.60
2019-03-21T01:49:03.730Z,9.60
2019-03-21T01:51:32.313Z,9.60
2019-03-21T01:54:00.807Z,9.60
2019-03-21T01:56:30.653Z,9.60
2019-03-21T01:58:59.190Z,9.60
2019-03-21T02:01:27.808Z,9.60
2019-03-21T02:03:56.382Z,9.60
2019-03-21T02:06:24.967Z,9.60
2019-03-21T02:08:53.593Z,9.60
2019-03-21T02:11:22.082Z,9.60
2019-03-21T02:13:50.679Z,9.60
2019-03-21T02:16:19.242Z,9.60
2019-03-21T02:18:47.831Z,9.60
2019-03-21T02:21:16.321Z,9.60
2019-03-21T02:23:44.835Z,9.60
2019-03-21T02:26:13.405Z,9.60
2019-03-21T02:28:41.990Z,9.60
2019-03-21T02:31:10.555Z,9.60
2019-03-21T02:33:45.793Z,9.60
2019-03-21T02:36:14.651Z,9.60
2019-03-21T02:38:43.231Z,9.50
2019-03-21T02:41:14.595Z,9.50
2019-03-21T02:43:43.191Z,9.50
2019-03-21T02:46:11.751Z,9.50
2019-03-21T02:48:40.342Z,9.50
2019-03-21T02:51:08.969Z,9.50
2019-03-21T02:53:37.566Z,9.60
2019-03-21T02:56:09.335Z,9.50
2019-03-21T02:58:37.927Z,9.60
2019-03-21T03:01:06.492Z,9.60
2019-03-21T03:03:35.079Z,9.50
2019-03-21T03:06:03.706Z,9.50
2019-03-21T03:08:32.299Z,9.50
2019-03-21T03:11:10.321Z,9.50
2019-03-21T03:13:37.236Z,9.50
2019-03-21T03:16:05.807Z,9.50
2019-03-21T03:18:34.404Z,9.50
2019-03-21T03:21:02.978Z,9.50
2019-03-21T03:23:31.555Z,9.50
2019-03-21T03:26:00.118Z,9.50
2019-03-21T03:28:33.628Z,9.50
2019-03-21T03:31:02.244Z,9.50
2019-03-21T03:33:30.879Z,9.50
2019-03-21T03:35:59.450Z,9.50
2019-03-21T03:38:28.054Z,9.50
2019-03-21T03:41:05.463Z,9.50
2019-03-21T03:43:34.117Z,9.50
2019-03-21T03:46:02.683Z,9.40
2019-03-21T03:48:31.276Z,9.40
2019-03-21T03:50:59.845Z,9.40
2019-03-21T03:53:28.434Z,9.50
2019-03-21T03:55:56.990Z,9.50
2019-03-21T03:58:27.325Z,9.50
2019-03-21T04:00:56.033Z,9.50
2019-03-21T04:03:25.958Z,9.50
2019-03-21T04:05:54.669Z,9.50
2019-03-21T04:08:23.326Z,9.50
2019-03-21T04:10:53.937Z,9.50
2019-03-21T04:13:22.523Z,9.50
2019-03-21T04:15:52.978Z,9.50
2019-03-21T04:18:25.393Z,9.50
2019-03-21T04:21:08.921Z,9.50
2019-03-21T04:23:37.510Z,9.50
2019-03-21T04:26:24.484Z,9.50
2019-03-21T04:28:53.057Z,9.50
2019-03-21T04:31:21.554Z,9.50
2019-03-21T04:33:52.878Z,9.50
2019-03-21T04:36:21.511Z,9.40
2019-03-21T04:38:50.103Z,9.50
2019-03-21T04:41:18.682Z,9.40
2019-03-21T04:43:47.256Z,9.40
2019-03-21T04:46:15.758Z,9.40
2019-03-21T04:48:44.274Z,9.40
2019-03-21T04:51:12.843Z,9.40
2019-03-21T04:53:41.434Z,9.40
2019-03-21T04:56:09.998Z,9.40
2019-03-21T04:58:38.510Z,9.40
2019-03-21T05:01:07.075Z,9.40
2019-03-21T05:03:35.668Z,9.40
2019-03-21T05:06:04.366Z,9.40
2019-03-21T05:08:32.956Z,9.40
2019-03-21T05:11:01.517Z,9.40
2019-03-21T05:13:30.188Z,9.40
2019-03-21T05:15:58.682Z,9.40
2019-03-21T05:18:32.989Z,9.40
2019-03-21T05:21:02.708Z,9.40
2019-03-21T05:23:31.298Z,9.40
2019-03-21T05:25:59.870Z,9.40
2019-03-21T05:28:28.461Z,9.30
2019-03-21T05:31:05.965Z,9.40
2019-03-21T05:33:34.489Z,9.40
2019-03-21T05:36:03.056Z,9.40
2019-03-21T05:38:32.987Z,9.40
2019-03-21T05:41:01.547Z,9.40
2019-03-21T05:43:36.271Z,9.30
2019-03-21T05:46:04.901Z,9.30
2019-03-21T05:48:33.487Z,9.30
2019-03-21T05:51:02.055Z,9.30
2019-03-21T05:53:30.565Z,9.30
2019-03-21T05:55:59.127Z,9.30
2019-03-21T05:58:27.710Z,9.30
2019-03-21T06:00:58.611Z,9.30
2019-03-21T06:03:46.577Z,9.30
2019-03-21T06:06:26.801Z,9.30
2019-03-21T06:08:55.382Z,9.40
2019-03-21T06:11:23.956Z,9.40
2019-03-21T06:13:52.527Z,9.30
2019-03-21T06:16:21.094Z,9.40
2019-03-21T06:19:01.366Z,9.40
2019-03-21T06:21:38.778Z,9.40
2019-03-21T06:24:19.190Z,9.40
2019-03-21T06:27:14.743Z,9.50
2019-03-21T06:29:43.321Z,9.50
2019-03-21T06:32:13.045Z,9.60
2019-03-21T06:34:41.782Z,9.60
2019-03-21T06:37:10.342Z,9.70
2019-03-21T06:39:38.859Z,9.80
2019-03-21T06:42:07.425Z,9.80
2019-03-21T06:44:36.016Z,9.80
2019-03-21T06:47:04.657Z,9.90
2019-03-21T06:49:33.237Z,9.90
2019-03-21T06:52:01.745Z,10.00
2019-03-21T06:54:30.338Z,10.00
2019-03-21T06:56:58.910Z,10.20
2019-03-21T06:59:27.501Z,10.30
2019-03-21T07:01:56.086Z,10.50
2019-03-21T07:04:24.669Z,10.60
2019-03-21T07:06:53.238Z,10.70
2019-03-21T07:09:21.894Z,10.90
2019-03-21T07:11:50.458Z,10.90
2019-03-21T07:14:19.053Z,10.90
2019-03-21T07:16:47.555Z,10.90
2019-03-21T07:19:16.141Z,10.80
2019-03-21T07:21:44.710Z,10.80
2019-03-21T07:24:13.222Z,10.80
2019-03-21T07:26:41.786Z,10.90
2019-03-21T07:29:10.384Z,11.10
2019-03-21T07:31:38.947Z,11.30
2019-03-21T07:34:10.023Z,11.40
2019-03-21T07:36:37.745Z,11.50
2019-03-21T07:39:07.703Z,11.60
2019-03-21T07:41:36.280Z,11.60
2019-03-21T07:44:05.011Z,11.60
2019-03-21T07:46:33.578Z,11.60
2019-03-21T07:49:02.077Z,11.60
2019-03-21T07:51:30.670Z,11.80
2019-03-21T07:53:59.319Z,11.90
2019-03-21T07:56:27.923Z,12.00
2019-03-21T07:58:57.819Z,12.00
2019-03-21T08:01:26.545Z,12.00
2019-03-21T08:03:55.058Z,12.10
2019-03-21T08:06:23.640Z,12.30
2019-03-21T08:08:52.142Z,12.30
2019-03-21T08:11:20.732Z,12.30
2019-03-21T08:13:49.310Z,12.40
2019-03-21T08:16:17.911Z,12.40
2019-03-21T08:18:46.485Z,12.50
2019-03-21T08:21:15.081Z,12.60
2019-03-21T08:23:43.643Z,12.60
2019-03-21T08:26:12.235Z,12.60
2019-03-21T08:28:40.797Z,12.70
2019-03-21T08:31:12.385Z,12.70
2019-03-21T08:33:40.887Z,12.80
2019-03-21T08:36:09.641Z,12.90
2019-03-21T08:38:41.690Z,12.90
2019-03-21T08:41:10.570Z,13.00
2019-03-21T08:43:39.074Z,13.00
2019-03-21T08:46:07.662Z,13.10
2019-03-21T08:48:37.095Z,13.20
2019-03-21T08:51:08.679Z,13.40
2019-03-21T08:53:37.387Z,13.50
2019-03-21T08:56:06.046Z,13.60
2019-03-21T08:58:34.628Z,13.70
2019-03-21T09:01:03.281Z,13.70
2019-03-21T09:03:31.782Z,13.80
2019-03-21T09:06:00.375Z,13.90
2019-03-21T09:08:28.945Z,14.00
2019-03-21T09:10:57.543Z,14.10
2019-03-21T09:13:26.109Z,14.20
2019-03-21T09:15:54.714Z,14.00
2019-03-21T09:18:23.286Z,14.00
2019-03-21T09:20:51.806Z,14.10
2019-03-21T09:23:20.448Z,14.20
2019-03-21T09:25:51.198Z,14.30
2019-03-21T09:28:19.266Z,14.50
2019-03-21T09:30:50.413Z,14.50
2019-03-21T09:33:18.137Z,14.70
2019-03-21T09:35:46.661Z,14.70
2019-03-21T09:38:15.173Z,14.70
2019-03-21T09:40:43.763Z,14.70
2019-03-21T09:43:12.407Z,14.80
2019-03-21T09:45:41.004Z,14.80
2019-03-21T09:48:09.574Z,14.80
2019-03-21T09:50:38.165Z,15.00
2019-03-21T09:53:06.665Z,15.10
2019-03-21T09:55:35.259Z,15.20
2019-03-21T09:58:03.894Z,15.20
2019-03-21T10:00:36.534Z,15.30
2019-03-21T10:03:05.886Z,15.30
2019-03-21T10:05:34.545Z,15.40
2019-03-21T10:08:03.363Z,15.40
2019-03-21T10:10:34.155Z,15.40
2019-03-21T10:13:02.726Z,15.40
2019-03-21T10:15:31.311Z,15.40
2019-03-21T10:17:59.879Z,15.40
2019-03-21T10:20:28.475Z,15.50
2019-03-21T10:22:57.046Z,15.60
2019-03-21T10:25:26.909Z,15.50
2019-03-21T10:27:55.718Z,15.50
2019-03-21T10:30:41.141Z,15.50
2019-03-21T10:33:11.450Z,15.70
2019-03-21T10:35:40.158Z,15.60
2019-03-21T10:38:08.979Z,15.80
2019-03-21T10:40:37.793Z,15.80
2019-03-21T10:43:06.750Z,15.80
2019-03-21T10:45:35.665Z,15.90
2019-03-21T10:48:04.590Z,15.90
2019-03-21T10:50:38.023Z,15.90
2019-03-21T10:53:07.458Z,15.90
2019-03-21T10:55:36.231Z,16.00
2019-03-21T10:58:05.766Z,16.10
2019-03-21T11:00:34.394Z,16.20
2019-03-21T11:03:03.128Z,16.20
2019-03-21T11:05:31.705Z,16.20
2019-03-21T11:08:00.287Z,16.10
2019-03-21T11:10:30.310Z,16.10
2019-03-21T11:12:58.903Z,16.00
2019-03-21T11:15:27.545Z,15.90
2019-03-21T11:17:56.139Z,15.80
2019-03-21T11:20:30.170Z,15.90
2019-03-21T11:22:58.894Z,15.90
2019-03-21T11:25:27.701Z,16.00
2019-03-21T11:27:56.435Z,16.00
2019-03-21T11:30:30.466Z,16.10
2019-03-21T11:32:59.336Z,16.10
2019-03-21T11:35:27.916Z,16.20
2019-03-21T11:37:56.570Z,16.10
2019-03-21T11:40:25.144Z,16.20
2019-03-21T11:42:53.749Z,16.20
2019-03-21T11:45:22.539Z,16.40
2019-03-21T11:47:51.126Z,16.40
2019-03-21T11:50:19.700Z,16.40
2019-03-21T11:52:48.286Z,16.30
2019-03-21T11:55:16.846Z,16.30
2019-03-21T11:57:45.444Z,16.10
2019-03-21T12:00:15.319Z,16.00
2019-03-21T12:02:43.987Z,16.00
2019-03-21T12:05:12.695Z,16.10
2019-03-21T12:07:41.283Z,16.20
2019-03-21T12:10:12.807Z,16.30
2019-03-21T12:12:41.393Z,16.20
2019-03-21T12:15:11.198Z,16.30
2019-03-21T12:17:39.791Z,16.30
2019-03-21T12:20:10.206Z,16.30
2019-03-21T12:22:38.731Z,16.40
2019-03-21T12:25:08.342Z,16.40
2019-03-21T12:27:36.929Z,16.20
2019-03-21T12:30:08.458Z,16.10
2019-03-21T12:32:36.975Z,16.10
2019-03-21T12:35:07.283Z,16.10
2019-03-21T12:37:35.955Z,16.20
2019-03-21T12:40:07.066Z,16.30
2019-03-21T12:42:35.718Z,16.20
2019-03-21T12:45:07.418Z,16.10
2019-03-21T12:47:36.024Z,16.10
2019-03-21T12:50:08.918Z,16.00
2019-03-21T12:53:28.409Z,16.00
2019-03-21T12:55:07.910Z,16.00
2019-03-21T12:57:36.511Z,16.00
2019-03-21T13:00:14.294Z,16.00
2019-03-21T13:05:16.245Z,16.30
2019-03-21T13:07:13.117Z,16.20
2019-03-21T13:07:44.761Z,16.30
2019-03-21T13:10:13.405Z,16.30
2019-03-21T13:12:43.530Z,16.20
2019-03-21T13:15:12.252Z,16.20
2019-03-21T13:17:40.846Z,16.20
2019-03-21T13:20:09.549Z,16.00
2019-03-21T13:22:38.170Z,15.90
2019-03-21T13:25:06.738Z,15.90
2019-03-21T13:27:35.377Z,16.10
2019-03-21T13:30:05.947Z,16.10
2019-03-21T13:32:34.469Z,16.10
2019-03-21T13:35:06.142Z,16.10
2019-03-21T13:37:33.999Z,16.00
2019-03-21T13:40:02.505Z,16.00
2019-03-21T13:42:31.381Z,16.00
2019-03-21T13:44:59.947Z,16.10
2019-03-21T13:47:28.528Z,16.10
2019-03-21T13:49:58.922Z,16.10
2019-03-21T13:52:27.516Z,16.00
2019-03-21T13:54:56.086Z,16.00
2019-03-21T13:57:24.657Z,16.00
2019-03-21T13:59:53.173Z,15.90
2019-03-21T14:02:21.671Z,15.90
2019-03-21T14:04:50.266Z,15.90
2019-03-21T14:07:19.990Z,16.00
2019-03-21T14:09:48.515Z,16.00
2019-03-21T14:12:17.079Z,16.00
2019-03-21T14:14:45.675Z,16.00
2019-03-21T14:17:21.928Z,16.10
2019-03-21T14:19:44.488Z,16.00
2019-03-21T14:22:13.067Z,16.10
2019-03-21T14:24:41.649Z,16.10
2019-03-21T14:27:10.220Z,16.10
2019-03-21T14:29:38.817Z,16.10
2019-03-21T14:32:07.450Z,16.20
2019-03-21T14:34:35.981Z,16.20
2019-03-21T14:37:04.476Z,16.30
2019-03-21T14:39:33.076Z,16.30
2019-03-21T14:42:01.715Z,16.30
2019-03-21T14:44:30.233Z,16.20
2019-03-21T14:46:58.802Z,16.20
2019-03-21T14:49:27.390Z,16.20
2019-03-21T14:51:55.953Z,16.20
2019-03-21T14:54:24.473Z,16.10
2019-03-21T14:56:52.978Z,16.00
2019-03-21T14:59:21.494Z,16.00
2019-03-21T15:01:49.990Z,15.80
2019-03-21T15:04:18.576Z,15.80
2019-03-21T15:06:47.072Z,15.90
2019-03-21T15:09:15.734Z,15.90
2019-03-21T15:11:44.411Z,15.90
2019-03-21T15:14:12.995Z,15.90
2019-03-21T15:16:41.748Z,15.90
2019-03-21T15:19:10.333Z,15.90
2019-03-21T15:21:38.845Z,15.80
2019-03-21T15:24:08.024Z,15.80
2019-03-21T15:26:38.310Z,15.80
2019-03-21T15:29:06.893Z,15.70
2019-03-21T15:31:35.462Z,15.70
2019-03-21T15:34:04.050Z,15.70
2019-03-21T15:36:32.547Z,15.70
2019-03-21T15:39:01.151Z,15.70
2019-03-21T15:41:29.787Z,15.70
2019-03-21T15:43:58.382Z,15.60
2019-03-21T15:46:26.953Z,15.50
2019-03-21T15:48:55.554Z,15.40
2019-03-21T15:51:24.048Z,15.40
2019-03-21T15:53:56.496Z,15.40
2019-03-21T15:56:22.854Z,15.40
2019-03-21T15:58:51.438Z,15.30
2019-03-21T16:01:19.941Z,15.30
2019-03-21T16:03:48.508Z,15.30
2019-03-21T16:06:17.119Z,15.30
2019-03-21T16:08:45.696Z,15.30
2019-03-21T16:11:14.351Z,15.30
2019-03-21T16:13:42.842Z,15.30
2019-03-21T16:16:11.365Z,15.20
2019-03-21T16:18:39.935Z,15.20
2019-03-21T16:21:08.529Z,15.20
2019-03-21T16:23:37.092Z,15.10
2019-03-21T16:26:05.687Z,15.10
2019-03-21T16:28:34.266Z,15.10
2019-03-21T16:31:02.874Z,15.00
2019-03-21T16:33:31.443Z,15.00
2019-03-21T16:36:00.039Z,14.90
2019-03-21T16:38:28.611Z,14.90
2019-03-21T16:40:57.202Z,14.80
2019-03-21T16:43:25.780Z,14.80
2019-03-21T16:45:54.362Z,14.80
2019-03-21T16:48:22.855Z,14.70
2019-03-21T16:50:51.375Z,14.60
2019-03-21T16:53:19.948Z,14.60
2019-03-21T16:55:50.081Z,14.60
2019-03-21T16:58:18.663Z,14.50
2019-03-21T17:00:47.257Z,14.40
2019-03-21T17:03:15.827Z,14.40
2019-03-21T17:05:44.424Z,14.30
2019-03-21T17:08:13.133Z,14.20
2019-03-21T17:10:41.736Z,14.10
2019-03-21T17:13:10.357Z,14.10
2019-03-21T17:15:38.943Z,14.00
2019-03-21T17:18:07.503Z,13.90
2019-03-21T17:20:36.090Z,13.90
2019-03-21T17:23:04.600Z,13.90
2019-03-21T17:25:33.190Z,13.80
2019-03-21T17:28:01.838Z,13.60
2019-03-21T17:30:30.439Z,13.50
2019-03-21T17:32:59.001Z,13.40
2019-03-21T17:35:27.598Z,13.20
2019-03-21T17:37:56.166Z,13.10
2019-03-21T17:40:24.774Z,13.00
2019-03-21T17:42:53.335Z,12.90
2019-03-21T17:45:21.923Z,12.80
2019-03-21T17:47:50.506Z,12.70
2019-03-21T17:50:19.235Z,12.60
2019-03-21T17:52:47.906Z,12.50
2019-03-21T17:55:16.566Z,12.50
2019-03-21T17:57:45.147Z,12.40
2019-03-21T18:00:20.727Z,12.30
2019-03-21T18:02:49.301Z,12.20
2019-03-21T18:05:17.900Z,12.10
2019-03-21T18:07:46.469Z,12.00
2019-03-21T18:10:26.735Z,11.90
2019-03-21T18:12:55.374Z,11.90
2019-03-21T18:15:24.042Z,11.80
2019-03-21T18:17:53.567Z,11.70
2019-03-21T18:20:22.152Z,11.60
2019-03-21T18:22:50.760Z,11.60
2019-03-21T18:25:19.318Z,11.50
2019-03-21T18:27:47.836Z,11.40
2019-03-21T18:30:17.180Z,11.30
2019-03-21T18:32:45.841Z,11.30
2019-03-21T18:35:14.664Z,11.30
2019-03-21T18:37:43.324Z,11.20
2019-03-21T18:40:12.468Z,11.20
2019-03-21T18:42:41.050Z,11.20
2019-03-21T18:45:12.500Z,11.10
2019-03-21T18:47:41.090Z,11.10
2019-03-21T18:50:11.621Z,11.10
2019-03-21T18:52:40.216Z,11.00
2019-03-21T18:55:09.509Z,11.00
2019-03-21T18:57:38.108Z,10.90
2019-03-21T19:00:09.750Z,10.90
2019-03-21T19:02:38.273Z,10.90
2019-03-21T19:05:07.589Z,10.80
2019-03-21T19:07:36.185Z,10.80
2019-03-21T19:10:07.164Z,10.70
2019-03-21T19:12:35.763Z,10.70
2019-03-21T19:15:06.674Z,10.60
2019-03-21T19:17:35.275Z,10.60
2019-03-21T19:20:14.921Z,10.50
2019-03-21T19:22:43.521Z,10.50
2019-03-21T19:25:18.401Z,10.50
2019-03-21T19:27:42.748Z,10.40
2019-03-21T19:30:21.984Z,10.40
2019-03-21T19:32:50.663Z,10.40
2019-03-21T19:35:19.403Z,10.30
2019-03-21T19:37:49.283Z,10.20
2019-03-21T19:40:19.990Z,10.20
2019-03-21T19:42:48.579Z,10.20
2019-03-21T19:45:18.995Z,10.10
2019-03-21T19:47:47.972Z,10.10
2019-03-21T19:50:21.683Z,10.00
2019-03-21T19:52:50.287Z,10.00
2019-03-21T19:55:30.186Z,10.00
2019-03-21T19:57:49.257Z,9.90
2019-03-21T20:00:21.913Z,9.90
2019-03-21T20:02:50.978Z,9.90
2019-03-21T20:05:19.844Z,9.80
2019-03-21T20:07:48.435Z,9.80
2019-03-21T20:10:18.650Z,9.80
2019-03-21T20:12:47.373Z,9.70
2019-03-21T20:15:17.100Z,9.70
2019-03-21T20:17:45.822Z,9.70
2019-03-21T20:20:18.357Z,9.60
2019-03-21T20:22:47.299Z,9.60
2019-03-21T20:25:16.036Z,9.60
2019-03-21T20:27:44.741Z,9.60
2019-03-21T20:30:20.374Z,9.50
2019-03-21T20:32:48.956Z,9.50
2019-03-21T20:35:17.674Z,9.50
2019-03-21T20:37:46.335Z,9.40
2019-03-21T20:40:16.758Z,9.40
2019-03-21T20:42:45.412Z,9.30
2019-03-21T20:45:16.695Z,9.30
2019-03-21T20:47:45.272Z,9.30
2019-03-21T20:50:14.378Z,9.30
2019-03-21T20:52:42.903Z,9.30
2019-03-21T20:55:11.707Z,9.20
2019-03-21T20:57:40.296Z,9.20
2019-03-21T21:00:14.503Z,9.20
2019-03-21T21:02:43.086Z,9.10
2019-03-21T21:05:12.098Z,9.10
2019-03-21T21:07:40.677Z,9.10
2019-03-21T21:10:11.146Z,9.00
2019-03-21T21:12:39.801Z,9.00
2019-03-21T21:15:10.940Z,9.00
2019-03-21T21:17:39.527Z,9.00
2019-03-21T21:20:10.334Z,9.00
2019-03-21T21:22:38.851Z,9.00
2019-03-21T21:25:08.664Z,8.90
2019-03-21T21:27:44.610Z,8.90
2019-03-21T21:30:10.788Z,8.90
2019-03-21T21:32:39.376Z,8.80
2019-03-21T21:35:08.977Z,8.80
2019-03-21T21:37:38.002Z,8.80
2019-03-21T21:40:08.140Z,8.80
2019-03-21T21:42:36.817Z,8.80
2019-03-21T21:45:08.254Z,8.80
2019-03-21T21:47:36.914Z,8.70
2019-03-21T21:50:13.553Z,8.70
2019-03-21T21:52:42.523Z,8.70
2019-03-21T21:55:11.675Z,8.70
2019-03-21T21:57:40.334Z,8.70
2019-03-21T22:00:12.107Z,8.70
2019-03-21T22:02:40.766Z,8.70
2019-03-21T22:05:09.467Z,8.70
2019-03-21T22:07:38.063Z,8.60
2019-03-21T22:10:10.635Z,8.60
2019-03-21T22:12:39.229Z,8.60
2019-03-21T22:15:12.602Z,8.70
2019-03-21T22:17:41.237Z,8.70
2019-03-21T22:20:11.644Z,8.70
2019-03-21T22:22:41.284Z,8.70
2019-03-21T22:25:10.802Z,8.70
2019-03-21T22:27:39.344Z,8.70
2019-03-21T22:30:18.682Z,8.60
2019-03-21T22:32:47.975Z,8.60
2019-03-21T22:35:16.559Z,8.60
2019-03-21T22:37:45.133Z,8.60
2019-03-21T22:40:18.360Z,8.60
2019-03-21T22:42:46.902Z,8.60
2019-03-21T22:45:16.730Z,8.60
2019-03-21T22:47:45.357Z,8.70
2019-03-21T22:50:15.325Z,8.60
2019-03-21T22:52:44.278Z,8.60
2019-03-21T22:55:13.307Z,8.50
2019-03-21T22:57:41.947Z,8.50
2019-03-21T23:00:16.211Z,8.50
2019-03-21T23:02:44.920Z,8.50
2019-03-21T23:05:14.210Z,8.40
2019-03-21T23:07:42.851Z,8.40
2019-03-21T23:10:11.679Z,8.30
2019-03-21T23:12:40.491Z,8.30
2019-03-21T23:15:10.714Z,8.30
2019-03-21T23:17:39.205Z,8.30
2019-03-21T23:20:10.812Z,8.30
2019-03-21T23:22:39.419Z,8.30
2019-03-21T23:25:09.114Z,8.30
2019-03-21T23:27:37.753Z,8.30
2019-03-21T23:30:11.106Z,8.20
2019-03-21T23:32:40.249Z,8.20
2019-03-21T23:35:09.278Z,8.20
2019-03-21T23:37:38.184Z,8.20
2019-03-21T23:40:09.425Z,8.20
2019-03-21T23:42:38.055Z,8.20
2019-03-21T23:45:08.584Z,8.20
2019-03-21T23:47:37.227Z,8.10
2019-03-21T23:50:08.421Z,8.00
2019-03-21T23:52:37.053Z,8.00
2019-03-21T23:55:06.632Z,8.00
2019-03-21T23:57:35.197Z,8.00
